Time,TemperatureF,DewpointF,PressureIn,WindDirection,WindDirectionDegrees,WindSpeedMPH,WindSpeedGustMPH,Humidity,HourlyPrecipIn,Conditions,Clouds,dailyrainin,SoftwareType,DateUTC
2013-08-28 00:01:00,78.5,71.1,29.92,East,82,0.0,0.0,78,0.00,,,0.00,Wunderground v.1.15,2013-08-28 04:01:00,
2013-08-28 00:02:00,78.5,71.1,29.92,East,83,0.0,0.0,78,0.00,,,0.00,Wunderground v.1.15,2013-08-28 04:02:00,
2013-08-28 00:03:00,78.5,71.1,29.92,East,83,0.0,0.0,78,0.00,,,0.00,Wunderground v.1.15,2013-08-28 04:03:00,
2013-08-28 00:06:00,78.5,71.1,29.92,East,83,0.0,0.0,78,0.00,,,0.00,Wunderground v.1.15,2013-08-28 04:06:00,
2013-08-28 00:12:00,78.3,70.9,29.92,East,93,0.0,0.0,78,0.00,,,0.00,Wunderground v.1.15,2013-08-28 04:12:00,
2013-08-28 00:16:00,78.3,70.9,29.92,East,93,0.0,0.0,78,0.00,,,0.00,Wunderground v.1.15,2013-08-28 04:16:00,
2013-08-28 00:21:00,78.1,70.7,29.92,East,93,0.0,0.0,78,0.00,,,0.00,Wunderground v.1.15,2013-08-28 04:21:00,
2013-08-28 00:27:00,78.1,70.7,29.92,East,93,0.0,0.0,78,0.00,,,0.00,Wunderground v.1.15,2013-08-28 04:27:00,
2013-08-28 00:33:00,77.9,70.5,29.92,East,93,0.0,0.0,78,0.00,,,0.00,Wunderground v.1.15,2013-08-28 04:33:00,
2013-08-28 00:38:00,77.7,70.3,29.92,East,93,0.0,0.0,78,0.00,,,0.00,Wunderground v.1.15,2013-08-28 04:38:00,
2013-08-28 00:44:00,77.7,70.7,29.92,East,93,0.0,0.0,79,0.00,,,0.00,Wunderground v.1.15,2013-08-28 04:44:00,
2013-08-28 00:50:00,77.6,70.6,29.92,East,93,0.0,0.0,79,0.00,,,0.00,Wunderground v.1.15,2013-08-28 04:50:00,
2013-08-28 00:55:00,77.6,70.6,29.92,East,93,0.0,0.0,79,0.00,,,0.00,Wunderground v.1.15,2013-08-28 04:55:00,
2013-08-28 01:00:00,77.4,70.4,29.91,East,93,0.0,0.0,79,0.00,,,0.00,Wunderground v.1.15,2013-08-28 05:00:00,
2013-08-28 01:06:00,77.4,70.4,29.91,East,93,0.0,0.0,79,0.00,,,0.00,Wunderground v.1.15,2013-08-28 05:06:00,
2013-08-28 01:12:00,77.2,70.2,29.91,East,93,0.0,0.0,79,0.00,,,0.00,Wunderground v.1.15,2013-08-28 05:12:00,
2013-08-28 01:17:00,77.2,70.5,29.91,East,93,0.0,0.0,80,0.00,,,0.00,Wunderground v.1.15,2013-08-28 05:17:00,
2013-08-28 01:22:00,77.0,70.4,29.91,East,93,0.0,0.0,80,0.00,,,0.00,Wunderground v.1.15,2013-08-28 05:22:00,
2013-08-28 01:28:00,76.8,70.2,29.91,East,93,0.0,0.0,80,0.00,,,0.00,Wunderground v.1.15,2013-08-28 05:28:00,
2013-08-28 01:34:00,76.8,70.2,29.91,East,93,0.0,0.0,80,0.00,,,0.00,Wunderground v.1.15,2013-08-28 05:34:00,
2013-08-28 01:40:00,76.8,70.2,29.91,East,93,0.0,0.0,80,0.00,,,0.00,Wunderground v.1.15,2013-08-28 05:40:00,
2013-08-28 01:45:00,76.8,70.2,29.90,East,93,0.0,0.0,80,0.00,,,0.00,Wunderground v.1.15,2013-08-28 05:45:00,
2013-08-28 01:51:00,76.7,70.1,29.90,East,93,0.0,0.0,80,0.00,,,0.00,Wunderground v.1.15,2013-08-28 05:51:00,
2013-08-28 01:57:00,76.5,70.2,29.90,East,93,0.0,0.0,81,0.00,,,0.00,Wunderground v.1.15,2013-08-28 05:57:00,
2013-08-28 02:02:00,76.5,70.2,29.90,East,93,0.0,0.0,81,0.00,,,0.00,Wunderground v.1.15,2013-08-28 06:02:00,
2013-08-28 02:07:00,76.3,70.0,29.90,East,93,0.0,0.0,81,0.00,,,0.00,Wunderground v.1.15,2013-08-28 06:07:00,
2013-08-28 02:12:00,76.1,69.8,29.90,East,93,0.0,0.0,81,0.00,,,0.00,Wunderground v.1.15,2013-08-28 06:12:00,
2013-08-28 02:17:00,76.1,69.8,29.90,East,93,0.0,0.0,81,0.00,,,0.00,Wunderground v.1.15,2013-08-28 06:17:00,
2013-08-28 02:22:00,76.0,69.7,29.90,East,93,0.0,0.0,81,0.00,,,0.00,Wunderground v.1.15,2013-08-28 06:22:00,
2013-08-28 02:27:00,75.8,69.6,29.90,East,93,0.0,0.0,81,0.00,,,0.00,Wunderground v.1.15,2013-08-28 06:27:00,
2013-08-28 02:33:00,75.8,69.6,29.90,East,93,0.0,0.0,81,0.00,,,0.00,Wunderground v.1.15,2013-08-28 06:33:00,
2013-08-28 02:38:00,75.8,69.6,29.90,East,93,0.0,0.0,81,0.00,,,0.00,Wunderground v.1.15,2013-08-28 06:38:00,
2013-08-28 02:43:00,75.6,69.4,29.90,East,93,0.0,0.0,81,0.00,,,0.00,Wunderground v.1.15,2013-08-28 06:43:00,
2013-08-28 02:48:00,75.4,69.2,29.89,East,93,0.0,0.0,81,0.00,,,0.00,Wunderground v.1.15,2013-08-28 06:48:00,
2013-08-28 02:53:00,75.4,69.5,29.89,East,93,0.0,0.0,82,0.00,,,0.00,Wunderground v.1.15,2013-08-28 06:53:00,
2013-08-28 02:58:00,75.4,69.5,29.89,East,93,0.0,0.0,82,0.00,,,0.00,Wunderground v.1.15,2013-08-28 06:58:00,
2013-08-28 03:03:00,75.3,69.4,29.89,East,93,0.0,0.0,82,0.00,,,0.00,Wunderground v.1.15,2013-08-28 07:03:00,
2013-08-28 03:08:00,75.4,69.9,29.89,East,93,0.0,0.0,83,0.00,,,0.00,Wunderground v.1.15,2013-08-28 07:08:00,
2013-08-28 03:13:00,75.4,69.9,29.89,East,93,0.0,0.0,83,0.00,,,0.00,Wunderground v.1.15,2013-08-28 07:13:00,
2013-08-28 03:18:00,75.4,69.9,29.89,East,93,0.0,0.0,83,0.00,,,0.00,Wunderground v.1.15,2013-08-28 07:18:00,
2013-08-28 03:23:00,75.4,69.9,29.89,East,93,0.0,1.0,83,0.00,,,0.00,Wunderground v.1.15,2013-08-28 07:23:00,
2013-08-28 03:28:00,75.4,69.9,29.89,East,93,0.0,1.0,83,0.00,,,0.00,Wunderground v.1.15,2013-08-28 07:28:00,
2013-08-28 03:33:00,75.4,70.2,29.89,East,93,0.0,0.0,84,0.00,,,0.00,Wunderground v.1.15,2013-08-28 07:33:00,
2013-08-28 03:38:00,75.4,70.2,29.89,East,93,0.0,0.0,84,0.00,,,0.00,Wunderground v.1.15,2013-08-28 07:38:00,
2013-08-28 03:43:00,75.3,70.1,29.89,East,93,0.0,0.0,84,0.00,,,0.00,Wunderground v.1.15,2013-08-28 07:43:00,
2013-08-28 03:48:00,75.3,70.1,29.88,East,93,0.0,0.0,84,0.00,,,0.00,Wunderground v.1.15,2013-08-28 07:48:00,
2013-08-28 03:53:00,75.4,70.2,29.88,East,93,0.0,0.0,84,0.00,,,0.00,Wunderground v.1.15,2013-08-28 07:53:00,
2013-08-28 03:58:00,75.3,70.1,29.88,East,92,0.0,0.0,84,0.00,,,0.00,Wunderground v.1.15,2013-08-28 07:58:00,
2013-08-28 04:03:00,75.3,70.1,29.88,East,92,0.0,0.0,84,0.00,,,0.00,Wunderground v.1.15,2013-08-28 08:03:00,
2013-08-28 04:08:00,75.3,70.1,29.88,East,92,0.0,1.0,84,0.00,,,0.00,Wunderground v.1.15,2013-08-28 08:08:00,
2013-08-28 04:13:00,75.1,69.9,29.88,East,93,0.0,0.0,84,0.00,,,0.00,Wunderground v.1.15,2013-08-28 08:13:00,
2013-08-28 04:18:00,75.1,69.9,29.88,East,93,0.0,0.0,84,0.00,,,0.00,Wunderground v.1.15,2013-08-28 08:18:00,
2013-08-28 04:23:00,74.9,69.7,29.88,East,93,0.0,0.0,84,0.00,,,0.00,Wunderground v.1.15,2013-08-28 08:23:00,
2013-08-28 04:28:00,74.7,69.5,29.88,East,92,0.0,0.0,84,0.00,,,0.00,Wunderground v.1.15,2013-08-28 08:28:00,
2013-08-28 04:33:00,74.7,69.5,29.88,East,93,0.0,0.0,84,0.00,,,0.00,Wunderground v.1.15,2013-08-28 08:33:00,
2013-08-28 04:38:00,74.6,69.4,29.88,East,92,0.0,0.0,84,0.00,,,0.00,Wunderground v.1.15,2013-08-28 08:38:00,
2013-08-28 04:43:00,74.4,69.2,29.88,East,93,0.0,1.0,84,0.00,,,0.00,Wunderground v.1.15,2013-08-28 08:43:00,
2013-08-28 04:48:00,74.4,69.2,29.88,East,92,0.0,1.0,84,0.00,,,0.00,Wunderground v.1.15,2013-08-28 08:48:00,
2013-08-28 04:53:00,74.2,69.4,29.88,East,92,0.0,0.0,85,0.00,,,0.00,Wunderground v.1.15,2013-08-28 08:53:00,
2013-08-28 04:58:00,74.2,69.4,29.88,East,93,0.0,0.0,85,0.00,,,0.00,Wunderground v.1.15,2013-08-28 08:58:00,
2013-08-28 05:03:00,74.0,69.2,29.88,East,92,0.0,0.0,85,0.00,,,0.00,Wunderground v.1.15,2013-08-28 09:03:00,
2013-08-28 05:08:00,74.0,69.2,29.88,East,92,0.0,0.0,85,0.00,,,0.00,Wunderground v.1.15,2013-08-28 09:08:00,
2013-08-28 05:13:00,74.0,69.2,29.88,East,93,0.0,0.0,85,0.00,,,0.00,Wunderground v.1.15,2013-08-28 09:13:00,
2013-08-28 05:18:00,73.9,69.1,29.89,East,92,0.0,0.0,85,0.00,,,0.00,Wunderground v.1.15,2013-08-28 09:18:00,
2013-08-28 05:23:00,73.9,69.1,29.89,East,92,0.0,0.0,85,0.00,,,0.00,Wunderground v.1.15,2013-08-28 09:23:00,
2013-08-28 05:28:00,73.9,69.1,29.89,East,93,0.0,0.0,85,0.00,,,0.00,Wunderground v.1.15,2013-08-28 09:28:00,
2013-08-28 05:33:00,73.7,68.9,29.89,East,92,0.0,0.0,85,0.00,,,0.00,Wunderground v.1.15,2013-08-28 09:33:00,
2013-08-28 05:38:00,73.7,68.9,29.89,East,92,0.0,0.0,85,0.00,,,0.00,Wunderground v.1.15,2013-08-28 09:38:00,
2013-08-28 05:44:00,73.5,68.7,29.89,East,92,0.0,0.0,85,0.00,,,0.00,Wunderground v.1.15,2013-08-28 09:44:00,
2013-08-28 05:49:00,73.5,68.7,29.89,East,92,0.0,0.0,85,0.00,,,0.00,Wunderground v.1.15,2013-08-28 09:49:00,
2013-08-28 05:54:00,73.3,68.5,29.89,East,92,0.0,0.0,85,0.00,,,0.00,Wunderground v.1.15,2013-08-28 09:54:00,
2013-08-28 05:59:00,73.2,68.4,29.89,East,92,0.0,0.0,85,0.00,,,0.00,Wunderground v.1.15,2013-08-28 09:59:00,
2013-08-28 06:04:00,73.2,68.4,29.89,East,92,0.0,0.0,85,0.00,,,0.00,Wunderground v.1.15,2013-08-28 10:04:00,
2013-08-28 06:09:00,73.0,68.2,29.89,East,92,0.0,0.0,85,0.00,,,0.00,Wunderground v.1.15,2013-08-28 10:09:00,
2013-08-28 06:14:00,73.0,68.2,29.89,East,92,0.0,0.0,85,0.00,,,0.00,Wunderground v.1.15,2013-08-28 10:14:00,
2013-08-28 06:19:00,72.8,68.0,29.89,East,92,0.0,0.0,85,0.00,,,0.00,Wunderground v.1.15,2013-08-28 10:19:00,
2013-08-28 06:24:00,72.8,68.0,29.89,East,92,0.0,0.0,85,0.00,,,0.00,Wunderground v.1.15,2013-08-28 10:24:00,
2013-08-28 06:29:00,72.7,67.9,29.89,East,92,0.0,0.0,85,0.00,,,0.00,Wunderground v.1.15,2013-08-28 10:29:00,
2013-08-28 06:34:00,72.7,68.3,29.89,East,92,0.0,0.0,86,0.00,,,0.00,Wunderground v.1.15,2013-08-28 10:34:00,
2013-08-28 06:39:00,72.7,68.3,29.89,East,93,0.0,0.0,86,0.00,,,0.00,Wunderground v.1.15,2013-08-28 10:39:00,
2013-08-28 06:44:00,72.5,68.1,29.89,East,92,0.0,0.0,86,0.00,,,0.00,Wunderground v.1.15,2013-08-28 10:44:00,
2013-08-28 06:49:00,72.5,68.1,29.89,East,93,0.0,0.0,86,0.00,,,0.00,Wunderground v.1.15,2013-08-28 10:49:00,
2013-08-28 06:54:00,72.5,68.1,29.89,East,92,0.0,0.0,86,0.00,,,0.00,Wunderground v.1.15,2013-08-28 10:54:00,
2013-08-28 06:59:00,72.3,67.9,29.89,East,92,0.0,0.0,86,0.00,,,0.00,Wunderground v.1.15,2013-08-28 10:59:00,
2013-08-28 07:04:00,72.3,67.9,29.90,East,92,0.0,0.0,86,0.00,,,0.00,Wunderground v.1.15,2013-08-28 11:04:00,
2013-08-28 07:09:00,72.3,67.9,29.90,East,92,0.0,0.0,86,0.00,,,0.00,Wunderground v.1.15,2013-08-28 11:09:00,
2013-08-28 07:14:00,72.3,67.9,29.90,East,92,0.0,0.0,86,0.00,,,0.00,Wunderground v.1.15,2013-08-28 11:14:00,
2013-08-28 07:19:00,72.1,67.7,29.90,East,92,0.0,0.0,86,0.00,,,0.00,Wunderground v.1.15,2013-08-28 11:19:00,
2013-08-28 07:24:00,72.3,68.2,29.90,East,93,0.0,1.0,87,0.00,,,0.00,Wunderground v.1.15,2013-08-28 11:24:00,
2013-08-28 07:29:00,72.5,68.4,29.90,East,92,0.0,1.0,87,0.00,,,0.00,Wunderground v.1.15,2013-08-28 11:29:00,
2013-08-28 07:34:00,72.5,68.4,29.90,East,93,0.0,0.0,87,0.00,,,0.00,Wunderground v.1.15,2013-08-28 11:34:00,
2013-08-28 07:39:00,72.7,68.6,29.90,East,93,0.0,0.0,87,0.00,,,0.00,Wunderground v.1.15,2013-08-28 11:39:00,
2013-08-28 07:44:00,72.7,68.6,29.90,East,92,0.0,0.0,87,0.00,,,0.00,Wunderground v.1.15,2013-08-28 11:44:00,
2013-08-28 07:49:00,72.8,68.7,29.91,East,93,0.0,0.0,87,0.00,,,0.00,Wunderground v.1.15,2013-08-28 11:49:00,
2013-08-28 07:54:00,73.0,68.9,29.91,East,92,0.0,0.0,87,0.00,,,0.00,Wunderground v.1.15,2013-08-28 11:54:00,
2013-08-28 07:59:00,73.2,69.1,29.91,East,92,0.0,0.0,87,0.00,,,0.00,Wunderground v.1.15,2013-08-28 11:59:00,
2013-08-28 08:04:00,73.3,69.2,29.92,East,92,0.0,0.0,87,0.00,,,0.00,Wunderground v.1.15,2013-08-28 12:04:00,
2013-08-28 08:09:00,73.5,69.7,29.92,East,92,0.0,0.0,88,0.00,,,0.00,Wunderground v.1.15,2013-08-28 12:09:00,
2013-08-28 08:14:00,73.7,69.6,29.92,East,93,0.0,1.0,87,0.00,,,0.00,Wunderground v.1.15,2013-08-28 12:14:00,
2013-08-28 08:19:00,73.9,69.8,29.92,East,83,0.0,0.0,87,0.00,,,0.00,Wunderground v.1.15,2013-08-28 12:19:00,
2013-08-28 08:24:00,74.0,69.9,29.92,ENE,73,0.0,6.0,87,0.00,,,0.00,Wunderground v.1.15,2013-08-28 12:24:00,
2013-08-28 08:29:00,74.2,70.1,29.92,ENE,78,0.0,1.0,87,0.00,,,0.00,Wunderground v.1.15,2013-08-28 12:29:00,
2013-08-28 08:34:00,74.4,70.3,29.92,East,79,0.0,1.0,87,0.00,,,0.00,Wunderground v.1.15,2013-08-28 12:34:00,
2013-08-28 08:39:00,74.6,70.5,29.92,East,89,0.0,1.0,87,0.00,,,0.00,Wunderground v.1.15,2013-08-28 12:39:00,
2013-08-28 08:44:00,74.9,70.8,29.92,ENE,69,0.0,7.0,87,0.00,,,0.00,Wunderground v.1.15,2013-08-28 12:44:00,
2013-08-28 08:49:00,75.1,70.6,29.92,SSE,155,1.0,2.0,86,0.00,,,0.00,Wunderground v.1.15,2013-08-28 12:49:00,
2013-08-28 08:54:00,75.3,70.8,29.92,NE,42,3.0,3.0,86,0.00,,,0.00,Wunderground v.1.15,2013-08-28 12:54:00,
2013-08-28 08:59:00,75.6,71.1,29.92,SSE,167,0.0,2.0,86,0.00,,,0.00,Wunderground v.1.15,2013-08-28 12:59:00,
2013-08-28 09:04:00,75.8,71.0,29.92,East,96,0.0,2.0,85,0.00,,,0.00,Wunderground v.1.15,2013-08-28 13:04:00,
2013-08-28 09:09:00,76.1,71.3,29.92,East,88,0.0,0.0,85,0.00,,,0.00,Wunderground v.1.15,2013-08-28 13:09:00,
2013-08-28 09:14:00,76.7,71.8,29.92,SSE,167,0.0,5.0,85,0.00,,,0.00,Wunderground v.1.15,2013-08-28 13:14:00,
2013-08-28 09:19:00,77.4,72.2,29.92,East,92,0.0,5.0,84,0.00,,,0.00,Wunderground v.1.15,2013-08-28 13:19:00,
2013-08-28 09:24:00,77.9,72.7,29.92,ENE,73,0.0,6.0,84,0.00,,,0.00,Wunderground v.1.15,2013-08-28 13:24:00,
2013-08-28 09:29:00,78.5,72.9,29.92,East,85,1.0,6.0,83,0.00,,,0.00,Wunderground v.1.15,2013-08-28 13:29:00,
2013-08-28 09:34:00,79.2,73.2,29.93,ENE,78,0.0,7.0,82,0.00,,,0.00,Wunderground v.1.15,2013-08-28 13:34:00,
2013-08-28 09:40:00,79.8,73.4,29.93,East,82,6.0,6.0,81,0.00,,,0.00,Wunderground v.1.15,2013-08-28 13:40:00,
2013-08-28 09:44:00,80.3,73.6,29.93,ENE,76,2.0,8.0,80,0.00,,,0.00,Wunderground v.1.15,2013-08-28 13:44:00,
2013-08-28 09:50:00,80.9,73.8,29.93,ENE,72,5.0,5.0,79,0.00,,,0.00,Wunderground v.1.15,2013-08-28 13:50:00,
2013-08-28 09:55:00,81.2,73.7,29.93,East,83,0.0,8.0,78,0.00,,,0.00,Wunderground v.1.15,2013-08-28 13:55:00,
2013-08-28 10:00:00,81.6,73.7,29.93,ENE,73,0.0,3.0,77,0.00,,,0.00,Wunderground v.1.15,2013-08-28 14:00:00,
2013-08-28 10:05:00,82.2,74.3,29.93,SE,136,0.0,7.0,77,0.00,,,0.00,Wunderground v.1.15,2013-08-28 14:05:00,
2013-08-28 10:10:00,82.6,74.3,29.93,SE,134,0.0,1.0,76,0.00,,,0.00,Wunderground v.1.15,2013-08-28 14:10:00,
2013-08-28 10:15:00,83.0,74.3,29.93,ESE,104,0.0,5.0,75,0.00,,,0.00,Wunderground v.1.15,2013-08-28 14:15:00,
2013-08-28 10:20:00,83.6,74.4,29.94,East,95,0.0,0.0,74,0.00,,,0.00,Wunderground v.1.15,2013-08-28 14:20:00,
2013-08-28 10:25:00,84.1,74.5,29.94,SE,141,0.0,0.0,73,0.00,,,0.00,Wunderground v.1.15,2013-08-28 14:25:00,
2013-08-28 10:30:00,84.5,74.5,29.94,SE,138,0.0,0.0,72,0.00,,,0.00,Wunderground v.1.15,2013-08-28 14:30:00,
2013-08-28 10:35:00,84.9,74.4,29.94,ESE,116,0.0,0.0,71,0.00,,,0.00,Wunderground v.1.15,2013-08-28 14:35:00,
2013-08-28 10:40:00,85.5,74.6,29.94,NE,48,0.0,0.0,70,0.00,,,0.00,Wunderground v.1.15,2013-08-28 14:40:00,
2013-08-28 10:45:00,85.9,74.5,29.94,SSE,155,0.0,3.0,69,0.00,,,0.00,Wunderground v.1.15,2013-08-28 14:45:00,
2013-08-28 10:50:00,86.1,74.3,29.94,South,172,1.0,7.0,68,0.00,,,0.00,Wunderground v.1.15,2013-08-28 14:50:00,
2013-08-28 10:55:00,86.5,74.7,29.94,SW,220,0.0,7.0,68,0.00,,,0.00,Wunderground v.1.15,2013-08-28 14:55:00,
2013-08-28 11:00:00,86.7,74.4,29.94,SE,136,1.0,1.0,67,0.00,,,0.00,Wunderground v.1.15,2013-08-28 15:00:00,
2013-08-28 11:05:00,86.7,74.0,29.95,SE,143,0.0,1.0,66,0.00,,,0.00,Wunderground v.1.15,2013-08-28 15:05:00,
2013-08-28 11:10:00,87.0,73.8,29.95,South,175,6.0,6.0,65,0.00,,,0.00,Wunderground v.1.15,2013-08-28 15:10:00,
2013-08-28 11:15:00,87.2,73.5,29.95,SE,138,0.0,6.0,64,0.00,,,0.00,Wunderground v.1.15,2013-08-28 15:15:00,
2013-08-28 11:20:00,87.4,73.7,29.95,South,191,0.0,0.0,64,0.00,,,0.00,Wunderground v.1.15,2013-08-28 15:20:00,
2013-08-28 11:25:00,87.8,73.6,29.95,SSE,160,0.0,3.0,63,0.00,,,0.00,Wunderground v.1.15,2013-08-28 15:25:00,
2013-08-28 11:30:00,88.2,74.0,29.95,ESE,104,0.0,0.0,63,0.00,,,0.00,Wunderground v.1.15,2013-08-28 15:30:00,
2013-08-28 11:35:00,88.6,73.9,29.95,ESE,117,0.0,0.0,62,0.00,,,0.00,Wunderground v.1.15,2013-08-28 15:35:00,
2013-08-28 11:40:00,89.0,73.8,29.95,SSE,148,0.0,1.0,61,0.00,,,0.00,Wunderground v.1.15,2013-08-28 15:40:00,
2013-08-28 11:45:00,89.3,73.6,29.95,NNW,337,0.0,1.0,60,0.00,,,0.00,Wunderground v.1.15,2013-08-28 15:45:00,
2013-08-28 11:50:00,89.7,74.0,29.95,SSW,206,0.0,0.0,60,0.00,,,0.00,Wunderground v.1.15,2013-08-28 15:50:00,
2013-08-28 11:55:00,90.1,73.8,29.95,East,85,4.0,6.0,59,0.00,,,0.00,Wunderground v.1.15,2013-08-28 15:55:00,
2013-08-28 12:00:00,90.3,74.0,29.95,ESE,119,6.0,7.0,59,0.00,,,0.00,Wunderground v.1.15,2013-08-28 16:00:00,
2013-08-28 12:05:00,90.3,73.0,29.95,SE,144,0.0,7.0,57,0.00,,,0.00,Wunderground v.1.15,2013-08-28 16:05:00,
2013-08-28 12:10:00,90.3,72.5,29.95,SE,126,0.0,1.0,56,0.00,,,0.00,Wunderground v.1.15,2013-08-28 16:10:00,
2013-08-28 12:15:00,90.3,72.5,29.95,SE,145,0.0,1.0,56,0.00,,,0.00,Wunderground v.1.15,2013-08-28 16:15:00,
2013-08-28 12:20:00,90.1,72.3,29.94,SSW,195,0.0,0.0,56,0.00,,,0.00,Wunderground v.1.15,2013-08-28 16:20:00,
2013-08-28 12:25:00,90.1,72.3,29.94,SSE,152,0.0,6.0,56,0.00,,,0.00,Wunderground v.1.15,2013-08-28 16:25:00,
2013-08-28 12:30:00,89.9,71.6,29.94,South,178,0.0,0.0,55,0.00,,,0.00,Wunderground v.1.15,2013-08-28 16:30:00,
2013-08-28 12:35:00,90.1,71.8,29.94,North,4,0.0,3.0,55,0.00,,,0.00,Wunderground v.1.15,2013-08-28 16:35:00,
2013-08-28 12:40:00,90.3,71.9,29.94,North,0,0.0,0.0,55,0.00,,,0.00,Wunderground v.1.15,2013-08-28 16:40:00,
2013-08-28 12:45:00,90.5,72.1,29.93,NNW,330,0.0,1.0,55,0.00,,,0.00,Wunderground v.1.15,2013-08-28 16:45:00,
2013-08-28 12:50:00,90.7,71.8,29.93,SE,126,0.0,0.0,54,0.00,,,0.00,Wunderground v.1.15,2013-08-28 16:50:00,
2013-08-28 12:55:00,91.0,71.5,29.93,South,172,0.0,7.0,53,0.00,,,0.00,Wunderground v.1.15,2013-08-28 16:55:00,
2013-08-28 13:00:00,91.2,71.1,29.93,North,353,0.0,0.0,52,0.00,,,0.00,Wunderground v.1.15,2013-08-28 17:00:00,
2013-08-28 13:05:00,91.6,70.9,29.93,SSE,167,0.0,4.0,51,0.00,,,0.00,Wunderground v.1.15,2013-08-28 17:05:00,
2013-08-28 13:10:00,91.6,70.3,29.93,East,88,0.0,0.0,50,0.00,,,0.00,Wunderground v.1.15,2013-08-28 17:10:00,
2013-08-28 13:15:00,92.1,70.8,29.92,ENE,65,0.0,2.0,50,0.00,,,0.00,Wunderground v.1.15,2013-08-28 17:15:00,
2013-08-28 13:20:00,92.5,70.6,29.92,ENE,78,0.0,0.0,49,0.00,,,0.00,Wunderground v.1.15,2013-08-28 17:20:00,
2013-08-28 13:25:00,92.7,70.1,29.92,SE,140,0.0,1.0,48,0.00,,,0.00,Wunderground v.1.15,2013-08-28 17:25:00,
2013-08-28 13:30:00,93.2,70.6,29.92,NNE,27,0.0,0.0,48,0.00,,,0.00,Wunderground v.1.15,2013-08-28 17:30:00,
2013-08-28 13:36:00,93.4,70.8,29.92,NNW,343,0.0,3.0,48,0.00,,,0.00,Wunderground v.1.15,2013-08-28 17:36:00,
2013-08-28 13:41:00,93.4,70.8,29.92,West,270,3.0,7.0,48,0.00,,,0.00,Wunderground v.1.15,2013-08-28 17:41:00,
2013-08-28 13:46:00,93.4,70.8,29.92,NW,323,4.0,7.0,48,0.00,,,0.00,Wunderground v.1.15,2013-08-28 17:46:00,
2013-08-28 13:51:00,92.9,70.9,29.92,WNW,282,1.0,8.0,49,0.00,,,0.00,Wunderground v.1.15,2013-08-28 17:51:00,
2013-08-28 13:56:00,92.9,71.5,29.92,WNW,299,0.0,8.0,50,0.00,,,0.00,Wunderground v.1.15,2013-08-28 17:56:00,
2013-08-28 14:01:00,92.9,72.1,29.91,NW,305,0.0,5.0,51,0.00,,,0.00,Wunderground v.1.15,2013-08-28 18:01:00,
2013-08-28 14:06:00,92.9,72.1,29.91,North,357,3.0,8.0,51,0.00,,,0.00,Wunderground v.1.15,2013-08-28 18:06:00,
2013-08-28 14:11:00,92.7,71.9,29.91,West,265,7.0,7.0,51,0.00,,,0.00,Wunderground v.1.15,2013-08-28 18:11:00,
2013-08-28 14:16:00,92.7,71.9,29.91,North,0,0.0,10.0,51,0.00,,,0.00,Wunderground v.1.15,2013-08-28 18:16:00,
2013-08-28 14:21:00,92.7,72.5,29.91,WSW,254,5.0,6.0,52,0.00,,,0.00,Wunderground v.1.15,2013-08-28 18:21:00,
2013-08-28 14:26:00,92.7,71.9,29.91,WSW,243,4.0,10.0,51,0.00,,,0.00,Wunderground v.1.15,2013-08-28 18:26:00,
2013-08-28 14:31:00,92.7,71.9,29.90,North,349,3.0,3.0,51,0.00,,,0.00,Wunderground v.1.15,2013-08-28 18:31:00,
2013-08-28 14:36:00,92.7,71.9,29.90,NE,34,1.0,7.0,51,0.00,,,0.00,Wunderground v.1.15,2013-08-28 18:36:00,
2013-08-28 14:41:00,92.7,71.9,29.90,NW,316,2.0,7.0,51,0.00,,,0.00,Wunderground v.1.15,2013-08-28 18:41:00,
2013-08-28 14:46:00,92.7,71.9,29.90,NNW,342,0.0,9.0,51,0.00,,,0.00,Wunderground v.1.15,2013-08-28 18:46:00,
2013-08-28 14:51:00,92.5,71.7,29.90,WSW,253,2.0,8.0,51,0.00,,,0.00,Wunderground v.1.15,2013-08-28 18:51:00,
2013-08-28 14:56:00,92.3,71.6,29.90,West,274,6.0,8.0,51,0.00,,,0.00,Wunderground v.1.15,2013-08-28 18:56:00,
2013-08-28 15:01:00,92.3,72.1,29.90,SW,217,0.0,4.0,52,0.00,,,0.00,Wunderground v.1.15,2013-08-28 19:01:00,
2013-08-28 15:06:00,92.3,72.1,29.90,North,354,0.0,8.0,52,0.00,,,0.00,Wunderground v.1.15,2013-08-28 19:06:00,
2013-08-28 15:11:00,92.3,72.1,29.90,NNW,339,0.0,8.0,52,0.00,,,0.00,Wunderground v.1.15,2013-08-28 19:11:00,
2013-08-28 15:16:00,92.3,72.1,29.90,West,268,1.0,10.0,52,0.00,,,0.00,Wunderground v.1.15,2013-08-28 19:16:00,
2013-08-28 15:21:00,92.3,72.1,29.90,WNW,292,0.0,6.0,52,0.00,,,0.00,Wunderground v.1.15,2013-08-28 19:21:00,
2013-08-28 15:26:00,92.1,71.4,29.90,WNW,284,3.0,8.0,51,0.00,,,0.00,Wunderground v.1.15,2013-08-28 19:26:00,
2013-08-28 15:31:00,91.8,71.7,29.89,NW,319,0.0,5.0,52,0.00,,,0.00,Wunderground v.1.15,2013-08-28 19:31:00,
2013-08-28 15:36:00,91.8,71.7,29.89,West,267,5.0,8.0,52,0.00,,,0.00,Wunderground v.1.15,2013-08-28 19:36:00,
2013-08-28 15:41:00,91.8,71.7,29.89,NNW,340,0.0,6.0,52,0.00,,,0.00,Wunderground v.1.15,2013-08-28 19:41:00,
2013-08-28 15:46:00,91.8,72.2,29.89,WNW,295,0.0,7.0,53,0.00,,,0.00,Wunderground v.1.15,2013-08-28 19:46:00,
2013-08-28 15:51:00,91.8,72.2,29.89,West,271,0.0,5.0,53,0.00,,,0.00,Wunderground v.1.15,2013-08-28 19:51:00,
2013-08-28 15:56:00,92.1,72.5,29.89,West,270,2.0,8.0,53,0.00,,,0.00,Wunderground v.1.15,2013-08-28 19:56:00,
2013-08-28 16:01:00,92.1,71.9,29.89,North,357,6.0,7.0,52,0.00,,,0.00,Wunderground v.1.15,2013-08-28 20:01:00,
2013-08-28 16:07:00,91.8,71.7,29.89,North,0,0.0,7.0,52,0.00,,,0.00,Wunderground v.1.15,2013-08-28 20:07:00,
2013-08-28 16:12:00,91.6,71.5,29.89,WNW,288,1.0,8.0,52,0.00,,,0.00,Wunderground v.1.15,2013-08-28 20:12:00,
2013-08-28 16:17:00,91.6,71.5,29.89,West,268,4.0,8.0,52,0.00,,,0.00,Wunderground v.1.15,2013-08-28 20:17:00,
2013-08-28 16:22:00,91.6,71.5,29.89,NW,306,2.0,6.0,52,0.00,,,0.00,Wunderground v.1.15,2013-08-28 20:22:00,
2013-08-28 16:27:00,91.6,72.0,29.89,North,3,0.0,7.0,53,0.00,,,0.00,Wunderground v.1.15,2013-08-28 20:27:00,
2013-08-28 16:32:00,91.6,72.0,29.88,West,265,6.0,10.0,53,0.00,,,0.00,Wunderground v.1.15,2013-08-28 20:32:00,
2013-08-28 16:37:00,91.4,71.3,29.88,WNW,296,5.0,11.0,52,0.00,,,0.00,Wunderground v.1.15,2013-08-28 20:37:00,
2013-08-28 16:42:00,91.2,71.1,29.88,West,272,4.0,10.0,52,0.00,,,0.00,Wunderground v.1.15,2013-08-28 20:42:00,
2013-08-28 16:47:00,91.0,71.5,29.88,West,267,6.0,10.0,53,0.00,,,0.00,Wunderground v.1.15,2013-08-28 20:47:00,
2013-08-28 16:52:00,90.7,71.2,29.88,WNW,298,0.0,10.0,53,0.00,,,0.00,Wunderground v.1.15,2013-08-28 20:52:00,
2013-08-28 16:57:00,90.5,70.5,29.88,West,281,0.0,10.0,52,0.00,,,0.00,Wunderground v.1.15,2013-08-28 20:57:00,
2013-08-28 17:02:00,89.9,70.5,29.87,West,280,5.0,8.0,53,0.00,,,0.00,Wunderground v.1.15,2013-08-28 21:02:00,
2013-08-28 17:07:00,89.7,70.3,29.87,WNW,289,2.0,10.0,53,0.00,,,0.00,Wunderground v.1.15,2013-08-28 21:07:00,
2013-08-28 17:12:00,89.7,70.8,29.87,WSW,253,0.0,6.0,54,0.00,,,0.00,Wunderground v.1.15,2013-08-28 21:12:00,
2013-08-28 17:17:00,89.7,70.8,29.87,NW,316,0.0,7.0,54,0.00,,,0.00,Wunderground v.1.15,2013-08-28 21:17:00,
2013-08-28 17:22:00,89.7,70.8,29.87,North,350,4.0,11.0,54,0.00,,,0.00,Wunderground v.1.15,2013-08-28 21:22:00,
2013-08-28 17:27:00,89.5,70.7,29.87,North,349,0.0,11.0,54,0.00,,,0.00,Wunderground v.1.15,2013-08-28 21:27:00,
2013-08-28 17:32:00,89.3,71.0,29.87,North,353,0.0,7.0,55,0.00,,,0.00,Wunderground v.1.15,2013-08-28 21:32:00,
2013-08-28 17:37:00,89.3,71.0,29.87,WNW,299,2.0,12.0,55,0.00,,,0.00,Wunderground v.1.15,2013-08-28 21:37:00,
2013-08-28 17:42:00,89.3,70.5,29.87,NNE,27,0.0,8.0,54,0.00,,,0.00,Wunderground v.1.15,2013-08-28 21:42:00,
2013-08-28 17:47:00,89.0,70.2,29.87,SW,215,0.0,8.0,54,0.00,,,0.00,Wunderground v.1.15,2013-08-28 21:47:00,
2013-08-28 17:52:00,88.8,70.5,29.87,WNW,296,1.0,5.0,55,0.00,,,0.00,Wunderground v.1.15,2013-08-28 21:52:00,
2013-08-28 17:57:00,88.8,70.5,29.87,SW,236,0.0,6.0,55,0.00,,,0.00,Wunderground v.1.15,2013-08-28 21:57:00,
2013-08-28 18:02:00,88.6,70.4,29.87,NNW,330,0.0,6.0,55,0.00,,,0.00,Wunderground v.1.15,2013-08-28 22:02:00,
2013-08-28 18:07:00,88.4,70.2,29.87,WNW,284,3.0,7.0,55,0.00,,,0.00,Wunderground v.1.15,2013-08-28 22:07:00,
2013-08-28 18:12:00,88.2,70.5,29.87,NW,322,2.0,6.0,56,0.00,,,0.00,Wunderground v.1.15,2013-08-28 22:12:00,
2013-08-28 18:17:00,88.0,69.8,29.87,NNE,16,0.0,8.0,55,0.00,,,0.00,Wunderground v.1.15,2013-08-28 22:17:00,
2013-08-28 18:22:00,87.8,69.6,29.87,WNW,301,0.0,5.0,55,0.00,,,0.00,Wunderground v.1.15,2013-08-28 22:22:00,
2013-08-28 18:27:00,87.6,70.0,29.87,West,265,0.0,7.0,56,0.00,,,0.00,Wunderground v.1.15,2013-08-28 22:27:00,
2013-08-28 18:32:00,87.4,69.3,29.87,WNW,299,0.0,5.0,55,0.00,,,0.00,Wunderground v.1.15,2013-08-28 22:32:00,
2013-08-28 18:37:00,87.4,69.3,29.87,NNE,17,2.0,5.0,55,0.00,,,0.00,Wunderground v.1.15,2013-08-28 22:37:00,
2013-08-28 18:42:00,87.2,69.6,29.87,NW,306,2.0,3.0,56,0.00,,,0.00,Wunderground v.1.15,2013-08-28 22:42:00,
2013-08-28 18:47:00,87.0,69.9,29.86,NNW,335,0.0,6.0,57,0.00,,,0.00,Wunderground v.1.15,2013-08-28 22:47:00,
2013-08-28 18:52:00,87.0,69.4,29.86,North,0,0.0,0.0,56,0.00,,,0.00,Wunderground v.1.15,2013-08-28 22:52:00,
2013-08-28 18:57:00,86.7,69.6,29.86,North,0,0.0,3.0,57,0.00,,,0.00,Wunderground v.1.15,2013-08-28 22:57:00,
2013-08-28 19:02:00,86.5,69.5,29.86,West,278,0.0,3.0,57,0.00,,,0.00,Wunderground v.1.15,2013-08-28 23:02:00,
2013-08-28 19:07:00,86.5,69.5,29.86,North,356,0.0,6.0,57,0.00,,,0.00,Wunderground v.1.15,2013-08-28 23:07:00,
2013-08-28 19:12:00,86.3,69.3,29.86,NNW,335,0.0,5.0,57,0.00,,,0.00,Wunderground v.1.15,2013-08-28 23:12:00,
2013-08-28 19:17:00,86.1,69.1,29.86,WNW,302,0.0,5.0,57,0.00,,,0.00,Wunderground v.1.15,2013-08-28 23:17:00,
2013-08-28 19:22:00,85.9,69.4,29.86,NNW,340,0.0,0.0,58,0.00,,,0.00,Wunderground v.1.15,2013-08-28 23:22:00,
2013-08-28 19:27:00,85.7,69.2,29.86,North,359,0.0,0.0,58,0.00,,,0.00,Wunderground v.1.15,2013-08-28 23:27:00,
2013-08-28 19:32:00,85.5,69.5,29.87,North,359,0.0,0.0,59,0.00,,,0.00,Wunderground v.1.15,2013-08-28 23:32:00,
2013-08-28 19:38:00,85.3,69.3,29.87,SE,145,3.0,4.0,59,0.00,,,0.00,Wunderground v.1.15,2013-08-28 23:38:00,
2013-08-28 19:43:00,84.9,69.5,29.87,SSE,155,0.0,5.0,60,0.00,,,0.00,Wunderground v.1.15,2013-08-28 23:43:00,
2013-08-28 19:48:00,84.5,69.1,29.88,SE,143,0.0,5.0,60,0.00,,,0.00,Wunderground v.1.15,2013-08-28 23:48:00,
2013-08-28 19:53:00,84.3,69.4,29.88,SSE,165,0.0,4.0,61,0.00,,,0.00,Wunderground v.1.15,2013-08-28 23:53:00,
2013-08-28 19:58:00,84.0,69.1,29.88,SSE,155,2.0,7.0,61,0.00,,,0.00,Wunderground v.1.15,2013-08-28 23:58:00,
2013-08-28 20:03:00,83.6,69.2,29.89,SSE,154,0.0,6.0,62,0.00,,,0.00,Wunderground v.1.15,2013-08-29 00:03:00,
2013-08-28 20:08:00,83.0,69.1,29.89,SSE,147,0.0,7.0,63,0.00,,,0.00,Wunderground v.1.15,2013-08-29 00:08:00,
2013-08-28 20:13:00,82.6,69.2,29.89,South,172,0.0,1.0,64,0.00,,,0.00,Wunderground v.1.15,2013-08-29 00:13:00,
2013-08-28 20:18:00,82.2,68.8,29.89,South,169,0.0,1.0,64,0.00,,,0.00,Wunderground v.1.15,2013-08-29 00:18:00,
2013-08-28 20:23:00,81.8,68.4,29.89,South,169,0.0,0.0,64,0.00,,,0.00,Wunderground v.1.15,2013-08-29 00:23:00,
2013-08-28 20:28:00,81.6,68.7,29.89,SE,133,0.0,0.0,65,0.00,,,0.00,Wunderground v.1.15,2013-08-29 00:28:00,
2013-08-28 20:33:00,81.2,68.8,29.89,SSE,160,0.0,5.0,66,0.00,,,0.00,Wunderground v.1.15,2013-08-29 00:33:00,
2013-08-28 20:38:00,80.9,68.5,29.89,SE,126,0.0,5.0,66,0.00,,,0.00,Wunderground v.1.15,2013-08-29 00:38:00,
2013-08-28 20:43:00,80.7,68.7,29.89,SE,126,0.0,1.0,67,0.00,,,0.00,Wunderground v.1.15,2013-08-29 00:43:00,
2013-08-28 20:48:00,80.3,68.3,29.89,SE,136,0.0,1.0,67,0.00,,,0.00,Wunderground v.1.15,2013-08-29 00:48:00,
2013-08-28 20:53:00,80.1,68.2,29.89,SSE,147,0.0,1.0,67,0.00,,,0.00,Wunderground v.1.15,2013-08-29 00:53:00,
2013-08-28 20:58:00,79.9,68.4,29.89,SSE,148,0.0,1.0,68,0.00,,,0.00,Wunderground v.1.15,2013-08-29 00:58:00,
2013-08-28 21:03:00,79.8,68.3,29.90,SSE,151,0.0,3.0,68,0.00,,,0.00,Wunderground v.1.15,2013-08-29 01:03:00,
2013-08-28 21:08:00,79.6,68.1,29.90,SSE,151,0.0,3.0,68,0.00,,,0.00,Wunderground v.1.15,2013-08-29 01:08:00,
2013-08-28 21:13:00,79.4,67.9,29.90,SSE,155,0.0,3.0,68,0.00,,,0.00,Wunderground v.1.15,2013-08-29 01:13:00,
2013-08-28 21:18:00,79.4,68.3,29.90,SSE,155,0.0,3.0,69,0.00,,,0.00,Wunderground v.1.15,2013-08-29 01:18:00,
2013-08-28 21:23:00,79.2,68.1,29.90,SSE,155,0.0,0.0,69,0.00,,,0.00,Wunderground v.1.15,2013-08-29 01:23:00,
2013-08-28 21:28:00,79.2,68.1,29.90,SSE,155,0.0,1.0,69,0.00,,,0.00,Wunderground v.1.15,2013-08-29 01:28:00,
2013-08-28 21:33:00,79.2,68.6,29.90,SSE,155,0.0,0.0,70,0.00,,,0.00,Wunderground v.1.15,2013-08-29 01:33:00,
2013-08-28 21:38:00,79.0,68.4,29.90,SSE,155,0.0,0.0,70,0.00,,,0.00,Wunderground v.1.15,2013-08-29 01:38:00,
2013-08-28 21:43:00,79.0,68.4,29.90,SSE,155,0.0,0.0,70,0.00,,,0.00,Wunderground v.1.15,2013-08-29 01:43:00,
2013-08-28 21:48:00,79.0,68.8,29.91,SSE,155,0.0,0.0,71,0.00,,,0.00,Wunderground v.1.15,2013-08-29 01:48:00,
2013-08-28 21:53:00,79.0,68.8,29.91,SSE,155,0.0,0.0,71,0.00,,,0.00,Wunderground v.1.15,2013-08-29 01:53:00,
2013-08-28 21:58:00,78.8,68.6,29.91,SSE,155,0.0,0.0,71,0.00,,,0.00,Wunderground v.1.15,2013-08-29 01:58:00,
2013-08-28 22:03:00,78.8,68.6,29.91,SSE,155,0.0,0.0,71,0.00,,,0.00,Wunderground v.1.15,2013-08-29 02:03:00,
2013-08-28 22:08:00,79.0,68.8,29.91,SSE,155,0.0,0.0,71,0.00,,,0.00,Wunderground v.1.15,2013-08-29 02:08:00,
2013-08-28 22:13:00,78.8,69.0,29.91,SSE,155,0.0,0.0,72,0.00,,,0.00,Wunderground v.1.15,2013-08-29 02:13:00,
2013-08-28 22:18:00,78.8,69.0,29.92,SSE,155,0.0,0.0,72,0.00,,,0.00,Wunderground v.1.15,2013-08-29 02:18:00,
2013-08-28 22:23:00,78.8,69.0,29.92,SSE,155,0.0,0.0,72,0.00,,,0.00,Wunderground v.1.15,2013-08-29 02:23:00,
2013-08-28 22:28:00,78.6,68.8,29.92,SSE,155,0.0,0.0,72,0.00,,,0.00,Wunderground v.1.15,2013-08-29 02:28:00,
2013-08-28 22:33:00,78.6,68.8,29.92,SSE,155,0.0,0.0,72,0.00,,,0.00,Wunderground v.1.15,2013-08-29 02:33:00,
2013-08-28 22:38:00,78.6,68.8,29.92,SSE,155,0.0,0.0,72,0.00,,,0.00,Wunderground v.1.15,2013-08-29 02:38:00,
2013-08-28 22:43:00,78.6,68.8,29.92,SSE,155,0.0,0.0,72,0.00,,,0.00,Wunderground v.1.15,2013-08-29 02:43:00,
2013-08-28 22:48:00,78.6,69.2,29.92,SSE,155,0.0,0.0,73,0.00,,,0.00,Wunderground v.1.15,2013-08-29 02:48:00,
2013-08-28 22:53:00,78.5,69.1,29.92,SSE,155,0.0,0.0,73,0.00,,,0.00,Wunderground v.1.15,2013-08-29 02:53:00,
2013-08-28 22:58:00,78.5,69.1,29.92,SSE,155,0.0,0.0,73,0.00,,,0.00,Wunderground v.1.15,2013-08-29 02:58:00,
2013-08-28 23:03:00,78.5,69.1,29.93,SSE,155,0.0,0.0,73,0.00,,,0.00,Wunderground v.1.15,2013-08-29 03:03:00,
2013-08-28 23:08:00,78.5,69.5,29.93,SSE,155,0.0,0.0,74,0.00,,,0.00,Wunderground v.1.15,2013-08-29 03:08:00,
2013-08-28 23:14:00,78.5,69.5,29.93,SSE,157,0.0,0.0,74,0.00,,,0.00,Wunderground v.1.15,2013-08-29 03:14:00,
2013-08-28 23:19:00,78.5,69.5,29.93,SSE,155,0.0,0.0,74,0.00,,,0.00,Wunderground v.1.15,2013-08-29 03:19:00,
2013-08-28 23:24:00,78.5,69.5,29.93,SSE,155,0.0,0.0,74,0.00,,,0.00,Wunderground v.1.15,2013-08-29 03:24:00,
2013-08-28 23:29:00,78.5,69.9,29.93,SSE,157,0.0,0.0,75,0.00,,,0.00,Wunderground v.1.15,2013-08-29 03:29:00,
2013-08-28 23:34:00,78.5,69.9,29.92,SSE,155,0.0,0.0,75,0.00,,,0.00,Wunderground v.1.15,2013-08-29 03:34:00,
2013-08-28 23:39:00,78.3,69.7,29.92,SSE,155,0.0,0.0,75,0.00,,,0.00,Wunderground v.1.15,2013-08-29 03:39:00,
2013-08-28 23:44:00,78.3,69.3,29.92,SSE,155,0.0,0.0,74,0.00,,,0.00,Wunderground v.1.15,2013-08-29 03:44:00,
2013-08-28 23:49:00,78.1,69.5,29.93,SSE,155,0.0,0.0,75,0.00,,,0.00,Wunderground v.1.15,2013-08-29 03:49:00,
2013-08-28 23:54:00,78.1,69.5,29.93,SSE,155,0.0,0.0,75,0.00,,,0.00,Wunderground v.1.15,2013-08-29 03:54:00,
2013-08-28 23:59:00,77.9,69.3,29.93,SSE,155,0.0,0.0,75,0.00,,,0.00,Wunderground v.1.15,2013-08-29 03:59:00,